createdAt,value
2022-10-22T00:01:52.785Z,13.70
2022-10-22T00:04:20.978Z,13.70
2022-10-22T00:06:49.839Z,13.70
2022-10-22T00:09:19.832Z,13.70
2022-10-22T00:11:52.096Z,13.70
2022-10-22T00:14:21.398Z,13.70
2022-10-22T00:16:49.751Z,13.80
2022-10-22T00:19:18.468Z,13.70
2022-10-22T00:21:46.731Z,13.70
2022-10-22T00:24:16.860Z,13.70
2022-10-22T00:26:46.888Z,13.80
2022-10-22T00:29:15.189Z,13.90
2022-10-22T00:31:48.196Z,13.80
2022-10-22T00:34:18.621Z,13.80
2022-10-22T00:36:47.084Z,13.80
2022-10-22T00:39:16.391Z,13.70
2022-10-22T00:41:46.906Z,13.70
2022-10-22T00:44:52.083Z,13.60
2022-10-22T00:47:21.614Z,13.60
2022-10-22T00:49:50.078Z,13.50
2022-10-22T00:52:22.692Z,13.60
2022-10-22T00:54:52.195Z,13.60
2022-10-22T00:57:24.246Z,13.60
2022-10-22T00:59:52.744Z,13.70
2022-10-22T01:02:24.263Z,13.70
2022-10-22T01:04:52.627Z,13.80
2022-10-22T01:07:23.446Z,13.70
2022-10-22T01:10:03.835Z,13.70
2022-10-22T01:12:45.113Z,13.60
2022-10-22T01:15:23.890Z,13.80
2022-10-22T01:18:00.924Z,13.80
2022-10-22T01:20:46.537Z,13.90
2022-10-22T01:23:26.731Z,14.00
2022-10-22T01:25:59.473Z,13.90
2022-10-22T01:28:43.941Z,13.90
2022-10-22T01:31:14.945Z,13.80
2022-10-22T01:33:46.053Z,13.80
2022-10-22T01:36:18.536Z,13.80
2022-10-22T01:38:48.742Z,13.90
2022-10-22T01:41:17.190Z,13.80
2022-10-22T01:43:48.298Z,13.70
2022-10-22T01:46:26.402Z,13.70
2022-10-22T01:49:13.719Z,13.70
2022-10-22T01:51:55.939Z,13.90
2022-10-22T01:54:35.075Z,13.90
2022-10-22T01:57:12.291Z,13.90
2022-10-22T01:59:51.998Z,14.00
2022-10-22T02:02:35.179Z,14.00
2022-10-22T02:05:09.184Z,14.00
2022-10-22T02:07:42.706Z,14.00
2022-10-22T02:10:13.170Z,14.00
2022-10-22T02:12:43.955Z,14.00
2022-10-22T02:15:16.776Z,14.00
2022-10-22T02:17:47.711Z,13.90
2022-10-22T02:20:20.941Z,14.00
2022-10-22T02:22:49.509Z,14.00
2022-10-22T02:25:18.370Z,14.00
2022-10-22T02:27:50.685Z,14.10
2022-10-22T02:30:22.517Z,14.10
2022-10-22T02:32:57.878Z,14.10
2022-10-22T02:35:28.751Z,14.20
2022-10-22T02:37:59.890Z,14.10
2022-10-22T02:40:29.792Z,14.10
2022-10-22T02:42:58.168Z,14.20
2022-10-22T02:45:28.392Z,14.20
2022-10-22T02:47:56.945Z,14.20
2022-10-22T02:50:28.288Z,14.20
2022-10-22T02:52:56.535Z,14.10
2022-10-22T02:55:24.916Z,14.10
2022-10-22T02:57:53.292Z,14.00
2022-10-22T03:00:23.203Z,13.90
2022-10-22T03:02:53.056Z,13.90
2022-10-22T03:05:21.777Z,13.90
2022-10-22T03:07:50.197Z,14.00
2022-10-22T03:10:18.347Z,14.20
2022-10-22T03:12:46.556Z,14.20
2022-10-22T03:15:15.188Z,14.10
2022-10-22T03:17:43.586Z,14.10
2022-10-22T03:20:13.797Z,14.10
2022-10-22T03:22:44.219Z,14.00
2022-10-22T03:25:15.265Z,13.90
2022-10-22T03:27:44.216Z,14.00
2022-10-22T03:30:13.138Z,13.90
2022-10-22T03:32:41.404Z,13.90
2022-10-22T03:35:19.976Z,13.80
2022-10-22T03:38:02.761Z,13.80
2022-10-22T03:40:31.186Z,13.80
2022-10-22T03:43:04.893Z,13.70
2022-10-22T03:45:33.265Z,13.70
2022-10-22T03:48:05.695Z,13.70
2022-10-22T03:53:23.050Z,13.70
2022-10-22T03:55:52.185Z,13.80
2022-10-22T03:58:20.532Z,13.90
2022-10-22T04:01:06.753Z,14.00
2022-10-22T04:03:35.657Z,14.00
2022-10-22T04:06:05.118Z,14.00
2022-10-22T04:08:35.905Z,13.90
2022-10-22T04:11:04.370Z,13.80
2022-10-22T04:13:32.674Z,13.70
2022-10-22T04:16:13.423Z,13.70
2022-10-22T04:18:42.369Z,13.70
2022-10-22T04:21:12.512Z,13.70
2022-10-22T04:23:47.172Z,13.70
2022-10-22T04:26:15.769Z,13.60
2022-10-22T04:28:44.698Z,13.70
2022-10-22T04:31:14.596Z,13.60
2022-10-22T04:33:43.443Z,13.40
2022-10-22T04:36:13.450Z,13.40
2022-10-22T04:38:44.658Z,13.30
2022-10-22T04:41:15.027Z,13.30
2022-10-22T04:43:43.956Z,13.30
2022-10-22T04:46:13.758Z,13.20
2022-10-22T04:48:43.705Z,13.20
2022-10-22T04:51:14.185Z,13.10
2022-10-22T04:53:44.834Z,13.10
2022-10-22T04:56:16.373Z,13.10
2022-10-22T04:58:45.678Z,13.20
2022-10-22T05:01:15.798Z,13.30
2022-10-22T05:03:46.075Z,13.30
2022-10-22T05:06:14.695Z,13.20
2022-10-22T05:08:44.931Z,13.20
2022-10-22T05:11:14.955Z,13.20
2022-10-22T05:13:43.759Z,13.10
2022-10-22T05:16:12.198Z,12.90
2022-10-22T05:18:41.998Z,12.90
2022-10-22T05:21:11.337Z,12.90
2022-10-22T05:23:40.206Z,12.90
2022-10-22T05:26:11.322Z,12.80
2022-10-22T05:28:40.127Z,12.80
2022-10-22T05:31:10.165Z,12.80
2022-10-22T05:33:38.935Z,12.80
2022-10-22T05:36:17.170Z,12.80
2022-10-22T05:38:45.756Z,12.80
2022-10-22T05:41:18.423Z,12.80
2022-10-22T05:43:46.899Z,12.90
2022-10-22T05:46:22.002Z,13.00
2022-10-22T05:48:51.837Z,13.00
2022-10-22T05:51:20.755Z,13.10
2022-10-22T05:53:53.733Z,13.10
2022-10-22T05:56:23.970Z,13.10
2022-10-22T05:58:52.513Z,13.10
2022-10-22T06:01:22.894Z,13.20
2022-10-22T06:03:54.279Z,13.30
2022-10-22T06:06:27.175Z,13.50
2022-10-22T06:08:57.096Z,13.60
2022-10-22T06:11:28.895Z,13.60
2022-10-22T06:13:59.472Z,13.50
2022-10-22T06:16:30.465Z,13.50
2022-10-22T06:19:02.010Z,13.50
2022-10-22T06:21:31.241Z,13.40
2022-10-22T06:24:00.727Z,13.40
2022-10-22T06:26:31.255Z,13.30
2022-10-22T06:29:00.542Z,13.20
2022-10-22T06:31:47.782Z,13.30
2022-10-22T06:34:19.027Z,13.40
2022-10-22T06:36:47.853Z,13.40
2022-10-22T06:39:18.398Z,13.50
2022-10-22T06:41:48.299Z,13.60
2022-10-22T06:44:20.226Z,13.70
2022-10-22T06:46:52.152Z,13.80
2022-10-22T06:49:22.004Z,14.00
2022-10-22T06:51:51.960Z,14.00
2022-10-22T06:54:20.310Z,14.10
2022-10-22T06:56:50.306Z,14.30
2022-10-22T06:59:18.707Z,14.40
2022-10-22T07:01:47.068Z,14.40
2022-10-22T07:04:15.512Z,14.50
2022-10-22T07:06:44.087Z,14.60
2022-10-22T07:09:12.696Z,14.70
2022-10-22T07:11:43.142Z,14.80
2022-10-22T07:14:13.979Z,14.80
2022-10-22T07:16:43.430Z,14.90
2022-10-22T07:19:11.752Z,15.00
2022-10-22T07:21:40.337Z,15.00
2022-10-22T07:24:09.375Z,15.10
2022-10-22T07:26:37.738Z,15.20
2022-10-22T07:29:07.137Z,15.20
2022-10-22T07:31:36.695Z,15.30
2022-10-22T07:34:05.030Z,15.40
2022-10-22T07:36:33.297Z,15.50
2022-10-22T07:39:02.954Z,15.50
2022-10-22T07:41:32.358Z,15.60
2022-10-22T07:44:01.130Z,15.70
2022-10-22T07:46:29.630Z,15.80
2022-10-22T07:48:59.475Z,15.90
2022-10-22T07:51:28.733Z,15.90
2022-10-22T07:53:57.168Z,16.00
2022-10-22T07:56:25.552Z,16.10
2022-10-22T07:58:53.940Z,16.10
2022-10-22T08:01:22.446Z,16.20
2022-10-22T08:03:51.245Z,16.20
2022-10-22T08:06:21.161Z,16.20
2022-10-22T08:08:49.709Z,16.20
2022-10-22T08:11:18.390Z,16.40
2022-10-22T08:13:46.713Z,16.50
2022-10-22T08:16:16.485Z,16.50
2022-10-22T08:18:44.964Z,16.60
2022-10-22T08:21:14.045Z,16.60
2022-10-22T08:23:44.068Z,16.60
2022-10-22T08:26:12.755Z,16.60
2022-10-22T08:28:41.236Z,16.60
2022-10-22T08:31:10.320Z,16.70
2022-10-22T08:33:42.478Z,16.70
2022-10-22T08:36:11.341Z,16.70
2022-10-22T08:38:39.735Z,16.80
2022-10-22T08:41:14.203Z,16.80
2022-10-22T08:44:15.969Z,16.80
2022-10-22T08:46:58.740Z,16.90
2022-10-22T08:49:30.115Z,16.90
2022-10-22T08:51:59.840Z,16.90
2022-10-22T08:54:38.353Z,17.00
2022-10-22T08:57:25.513Z,17.10
2022-10-22T09:00:02.245Z,17.20
2022-10-22T09:02:38.815Z,17.30
2022-10-22T09:05:24.821Z,17.50
2022-10-22T09:07:53.329Z,17.50
2022-10-22T09:10:26.154Z,17.50
2022-10-22T09:12:56.204Z,17.50
2022-10-22T09:15:33.975Z,17.60
2022-10-22T09:18:14.343Z,17.60
2022-10-22T09:20:48.815Z,17.60
2022-10-22T09:23:33.927Z,17.60
2022-10-22T09:26:02.713Z,17.60
2022-10-22T09:28:32.660Z,17.50
2022-10-22T09:31:01.118Z,17.60
2022-10-22T09:33:32.986Z,17.50
2022-10-22T09:36:03.800Z,17.60
2022-10-22T09:38:35.576Z,17.60
2022-10-22T09:41:05.095Z,17.60
2022-10-22T09:43:36.278Z,17.60
2022-10-22T09:46:06.971Z,17.70
2022-10-22T09:48:38.229Z,17.70
2022-10-22T09:51:14.263Z,17.90
2022-10-22T09:53:45.125Z,18.20
2022-10-22T09:56:25.170Z,18.40
2022-10-22T09:58:57.953Z,18.40
2022-10-22T10:01:28.582Z,18.60
2022-10-22T10:04:09.404Z,18.70
2022-10-22T10:06:40.584Z,18.80
2022-10-22T10:09:16.946Z,18.80
2022-10-22T10:11:49.538Z,18.80
2022-10-22T10:14:28.310Z,18.80
2022-10-22T10:17:09.736Z,18.70
2022-10-22T10:19:51.263Z,18.70
2022-10-22T10:22:31.546Z,18.60
2022-10-22T10:25:15.972Z,18.50
2022-10-22T10:27:49.097Z,18.60
2022-10-22T10:30:21.344Z,18.60
2022-10-22T10:33:03.327Z,18.60
2022-10-22T10:35:42.138Z,18.50
2022-10-22T10:38:28.861Z,18.50
2022-10-22T10:41:09.080Z,18.60
2022-10-22T10:43:49.948Z,18.70
2022-10-22T10:46:32.221Z,18.70
2022-10-22T10:49:09.613Z,18.70
2022-10-22T10:51:47.622Z,18.60
2022-10-22T10:54:26.675Z,18.70
2022-10-22T10:56:58.823Z,19.00
2022-10-22T10:59:42.747Z,19.10
2022-10-22T11:02:26.375Z,19.20
2022-10-22T11:05:31.322Z,19.30
2022-10-22T11:08:04.445Z,19.40
2022-10-22T11:10:38.489Z,19.20
2022-10-22T11:13:16.809Z,19.10
2022-10-22T12:00:26.175Z,18.60
2022-10-22T12:20:53.116Z,18.80
2022-10-22T12:23:11.554Z,18.90
2022-10-22T12:38:23.915Z,18.80
2022-10-22T12:40:29.836Z,19.00
2022-10-22T12:43:14.019Z,19.30
2022-10-22T12:53:15.054Z,19.70
2022-10-22T13:01:17.944Z,19.90
2022-10-22T13:03:30.757Z,20.10
2022-10-22T13:08:05.395Z,20.00
2022-10-22T14:06:06.022Z,18.90
2022-10-22T14:08:34.883Z,18.90
2022-10-22T14:11:03.795Z,18.80
2022-10-22T14:13:32.524Z,18.80
2022-10-22T14:16:01.232Z,18.70
2022-10-22T14:18:33.209Z,18.70
2022-10-22T14:21:05.403Z,18.60
2022-10-22T14:23:48.787Z,18.60
2022-10-22T14:26:24.079Z,18.60
2022-10-22T14:38:03.549Z,18.80
2022-10-22T14:47:43.452Z,19.10
2022-10-22T14:52:17.974Z,19.10
2022-10-22T14:53:33.949Z,19.10
2022-10-22T15:00:28.685Z,19.20
2022-10-22T15:03:35.196Z,19.60
2022-10-22T15:26:07.307Z,21.40
2022-10-22T15:27:51.285Z,21.00
2022-10-22T15:30:23.958Z,20.60
2022-10-22T15:32:52.589Z,20.40
2022-10-22T15:35:24.451Z,20.10
2022-10-22T15:37:58.091Z,19.90
2022-10-22T15:40:28.873Z,19.60
2022-10-22T15:43:18.518Z,19.40
2022-10-22T15:45:57.708Z,19.20
2022-10-22T15:48:26.543Z,19.00
2022-10-22T15:50:55.307Z,18.80
2022-10-22T15:53:24.458Z,18.70
2022-10-22T15:55:55.369Z,18.50
2022-10-22T15:58:25.769Z,18.30
2022-10-22T16:00:54.555Z,18.20
2022-10-22T16:03:23.497Z,18.10
2022-10-22T16:05:55.055Z,18.00
2022-10-22T16:09:47.441Z,17.80
2022-10-22T16:11:57.762Z,17.70
2022-10-22T16:14:40.553Z,17.40
2022-10-22T16:17:12.099Z,17.30
2022-10-22T16:19:42.749Z,17.00
2022-10-22T16:22:25.817Z,16.80
2022-10-22T16:28:22.404Z,16.20
2022-10-22T16:36:08.905Z,15.60
2022-10-22T16:39:07.641Z,15.40
2022-10-22T16:48:26.774Z,14.30
2022-10-22T16:50:57.019Z,14.10
2022-10-22T16:53:26.096Z,14.00
2022-10-22T16:56:55.958Z,13.90
2022-10-22T16:59:38.022Z,13.80
2022-10-22T17:02:06.504Z,13.70
2022-10-22T17:04:36.213Z,13.70
2022-10-22T17:07:06.438Z,13.60
2022-10-22T17:09:35.210Z,13.50
2022-10-22T17:12:03.787Z,13.40
2022-10-22T17:14:41.588Z,13.30
2022-10-22T17:20:21.846Z,13.10
2022-10-22T17:22:52.651Z,13.00
2022-10-22T17:25:24.228Z,12.90
2022-10-22T17:27:55.192Z,12.80
2022-10-22T17:30:27.248Z,12.70
2022-10-22T17:32:56.198Z,12.60
2022-10-22T17:35:24.809Z,12.50
2022-10-22T17:37:55.045Z,12.40
2022-10-22T17:40:23.761Z,12.40
2022-10-22T17:42:52.482Z,12.40
2022-10-22T17:45:21.675Z,12.30
2022-10-22T17:47:52.035Z,12.30
2022-10-22T17:50:20.587Z,12.40
2022-10-22T17:52:49.323Z,12.30
2022-10-22T17:55:19.780Z,12.20
2022-10-22T17:57:48.445Z,12.10
2022-10-22T18:02:48.594Z,12.10
2022-10-22T18:05:17.416Z,12.00
2022-10-22T18:07:46.496Z,11.90
2022-10-22T18:10:15.055Z,11.90
2022-10-22T18:12:48.901Z,12.00
2022-10-22T18:15:18.466Z,12.10
2022-10-22T18:17:50.612Z,12.00
2022-10-22T18:20:19.774Z,11.80
2022-10-22T18:22:48.655Z,11.80
2022-10-22T18:25:21.125Z,11.70
2022-10-22T18:27:56.445Z,11.60
2022-10-22T18:30:25.002Z,11.50
2022-10-22T18:32:53.989Z,11.40
2022-10-22T18:35:22.814Z,11.40
2022-10-22T18:37:51.401Z,11.30
2022-10-22T18:40:20.153Z,11.30
2022-10-22T18:42:49.204Z,11.20
2022-10-22T18:45:20.216Z,11.10
2022-10-22T18:47:49.122Z,11.10
2022-10-22T18:50:18.100Z,11.10
2022-10-22T18:52:47.103Z,11.10
2022-10-22T18:55:15.956Z,11.10
2022-10-22T18:57:48.389Z,11.10
2022-10-22T19:28:55.752Z,11.10
2022-10-22T19:31:26.525Z,11.10
2022-10-22T19:36:22.090Z,11.10
2022-10-22T19:39:24.154Z,11.00
2022-10-22T19:58:07.972Z,10.70
2022-10-22T20:00:37.060Z,10.70
2022-10-22T20:03:05.687Z,10.60
2022-10-22T20:05:34.322Z,10.70
2022-10-22T20:08:03.031Z,10.80
2022-10-22T20:10:32.491Z,10.80
2022-10-22T20:13:00.949Z,10.80
2022-10-22T20:15:32.403Z,10.80
2022-10-22T20:18:01.194Z,10.80
2022-10-22T20:20:29.672Z,10.70
2022-10-22T20:22:58.151Z,10.80
2022-10-22T20:25:26.769Z,10.80
2022-10-22T20:27:55.415Z,10.70
2022-10-22T20:30:23.821Z,10.70
2022-10-22T20:32:54.070Z,10.70
2022-10-22T20:35:22.699Z,10.70
2022-10-22T20:37:51.228Z,10.70
2022-10-22T20:40:20.348Z,10.70
2022-10-22T20:42:49.603Z,10.70
2022-10-22T20:45:18.074Z,10.70
2022-10-22T20:47:51.583Z,10.80
2022-10-22T20:50:24.370Z,10.70
2022-10-22T20:52:52.956Z,10.70
2022-10-22T20:55:22.110Z,10.70
2022-10-22T20:57:50.951Z,10.80
2022-10-22T21:00:19.624Z,10.70
2022-10-22T21:02:48.245Z,10.80
2022-10-22T21:05:17.161Z,10.90
2022-10-22T21:07:46.997Z,10.90
2022-10-22T21:10:15.621Z,11.00
2022-10-22T21:12:45.547Z,11.20
2022-10-22T21:15:14.410Z,11.40
2022-10-22T21:17:42.941Z,11.70
2022-10-22T21:22:40.453Z,11.80
2022-10-22T21:25:11.075Z,11.90
2022-10-22T21:27:39.551Z,11.90
2022-10-22T21:30:08.987Z,11.90
2022-10-22T21:32:37.456Z,12.00
2022-10-22T21:35:06.622Z,12.10
2022-10-22T21:37:35.375Z,12.10
2022-10-22T21:40:04.509Z,12.20
2022-10-22T21:42:34.470Z,12.20
2022-10-22T21:45:03.082Z,12.30
2022-10-22T21:47:31.430Z,12.40
2022-10-22T21:49:59.897Z,12.40
2022-10-22T21:52:29.119Z,12.50
2022-10-22T21:54:57.616Z,12.50
2022-10-22T21:57:26.091Z,12.50
2022-10-22T21:59:56.726Z,12.50
2022-10-22T22:02:27.372Z,12.40
2022-10-22T22:04:56.012Z,12.50
2022-10-22T22:07:24.434Z,12.50
2022-10-22T22:09:52.944Z,12.50
2022-10-22T22:12:21.351Z,12.40
2022-10-22T22:14:49.730Z,12.30
2022-10-22T22:17:19.700Z,12.20
2022-10-22T22:19:48.108Z,12.20
2022-10-22T22:22:16.537Z,12.20
2022-10-22T22:24:44.884Z,12.20
2022-10-22T22:27:16.227Z,12.10
2022-10-22T22:29:44.826Z,12.00
2022-10-22T22:32:14.562Z,12.00
2022-10-22T22:34:44.852Z,11.90
2022-10-22T22:37:14.152Z,11.80
2022-10-22T22:39:42.591Z,11.80
2022-10-22T22:42:12.214Z,11.70
2022-10-22T22:44:42.002Z,11.70
2022-10-22T22:47:10.345Z,11.80
2022-10-22T22:49:38.800Z,11.90
2022-10-22T22:52:08.957Z,12.00
2022-10-22T22:54:37.382Z,12.10
2022-10-22T22:57:05.983Z,12.10
2022-10-22T22:59:34.348Z,12.20
2022-10-22T23:02:02.868Z,12.20
2022-10-22T23:04:31.362Z,12.20
2022-10-22T23:06:59.856Z,12.20
2022-10-22T23:09:33.275Z,12.10
2022-10-22T23:12:01.956Z,12.00
2022-10-22T23:14:30.662Z,11.90
2022-10-22T23:16:59.141Z,11.90
2022-10-22T23:19:27.861Z,11.80
2022-10-22T23:21:57.161Z,11.80
2022-10-22T23:24:28.028Z,11.80
2022-10-22T23:27:01.806Z,11.80
2022-10-22T23:29:31.912Z,11.80
2022-10-22T23:32:02.591Z,11.70
2022-10-22T23:34:32.350Z,11.70
2022-10-22T23:37:00.932Z,11.60
2022-10-22T23:39:30.902Z,11.60
2022-10-22T23:42:00.899Z,11.60
2022-10-22T23:44:29.578Z,11.60
2022-10-22T23:46:57.927Z,11.60
2022-10-22T23:49:26.446Z,11.70
2022-10-22T23:51:54.949Z,11.80
2022-10-22T23:54:23.542Z,11.90
2022-10-22T23:56:52.337Z,11.90
2022-10-22T23:59:22.343Z,11.90
